createdAt,value
2022-11-29T00:02:10.770Z,80.00
2022-11-29T00:04:55.821Z,75.60
2022-11-29T00:07:41.178Z,83.15
2022-11-29T00:10:26.485Z,74.43
2022-11-29T00:13:11.962Z,71.30
2022-11-29T00:16:09.279Z,70.43
2022-11-29T00:18:54.562Z,63.00
2022-11-29T00:21:40.064Z,63.13
2022-11-29T00:24:25.497Z,60.35
2022-11-29T00:27:10.608Z,68.97
2022-11-29T00:29:56.025Z,60.13
2022-11-29T00:32:41.477Z,62.95
2022-11-29T00:35:26.680Z,60.63
2022-11-29T00:38:12.097Z,61.25
2022-11-29T00:40:57.514Z,63.75
2022-11-29T00:43:42.769Z,56.05
2022-11-29T00:46:28.222Z,52.97
2022-11-29T00:49:13.909Z,61.30
2022-11-29T00:51:59.618Z,60.45
2022-11-29T00:54:45.143Z,59.30
2022-11-29T00:57:30.696Z,59.72
2022-11-29T01:00:16.756Z,57.75
2022-11-29T01:03:02.396Z,59.55
2022-11-29T01:05:47.731Z,58.65
2022-11-29T01:08:33.054Z,63.22
2022-11-29T01:11:21.488Z,59.17
2022-11-29T01:14:06.853Z,60.27
2022-11-29T01:16:52.360Z,60.00
2022-11-29T01:19:38.253Z,67.60
2022-11-29T01:22:23.731Z,62.42
2022-11-29T01:25:11.567Z,56.20
2022-11-29T01:27:56.661Z,64.00
2022-11-29T01:30:42.023Z,60.97
2022-11-29T01:33:27.353Z,55.38
2022-11-29T01:36:14.077Z,61.55
2022-11-29T01:39:01.585Z,61.35
2022-11-29T01:41:46.581Z,56.10
2022-11-29T01:44:31.782Z,56.67
2022-11-29T01:47:18.641Z,58.05
2022-11-29T01:50:04.236Z,59.97
2022-11-29T01:52:49.820Z,58.58
2022-11-29T01:55:39.230Z,59.92
2022-11-29T01:58:24.842Z,55.53
2022-11-29T02:01:10.865Z,58.22
2022-11-29T02:03:56.003Z,61.33
2022-11-29T02:06:41.525Z,56.10
2022-11-29T02:09:27.007Z,61.47
2022-11-29T02:12:30.365Z,58.15
2022-11-29T02:15:32.296Z,59.95
2022-11-29T02:18:35.563Z,59.47
2022-11-29T02:21:45.004Z,63.72
2022-11-29T02:24:50.687Z,59.22
2022-11-29T02:28:25.465Z,58.83
2022-11-29T02:31:29.400Z,59.45
2022-11-29T02:34:39.307Z,59.53
2022-11-29T02:40:36.177Z,56.28
2022-11-29T02:43:36.563Z,61.13
2022-11-29T02:46:27.998Z,55.38
2022-11-29T02:49:44.207Z,57.30
2022-11-29T02:52:38.697Z,63.97
2022-11-29T02:55:48.409Z,60.13
2022-11-29T02:58:46.755Z,60.33
2022-11-29T03:01:34.917Z,64.30
2022-11-29T03:04:40.864Z,66.75
2022-11-29T03:07:53.471Z,63.80
2022-11-29T03:10:45.574Z,65.45
2022-11-29T03:13:46.321Z,64.05
2022-11-29T03:16:43.416Z,65.57
2022-11-29T03:19:54.135Z,63.55
2022-11-29T03:23:16.984Z,62.58
2022-11-29T03:26:10.928Z,65.70
2022-11-29T03:29:07.854Z,67.38
2022-11-29T03:32:08.329Z,62.58
2022-11-29T03:35:04.247Z,59.30
2022-11-29T03:38:19.095Z,68.22
2022-11-29T03:41:30.824Z,65.63
2022-11-29T03:44:17.912Z,66.32
2022-11-29T03:47:38.385Z,65.07
2022-11-29T03:50:30.507Z,62.00
2022-11-29T03:53:26.761Z,65.90
2022-11-29T03:56:35.353Z,66.13
2022-11-29T03:59:51.723Z,60.50
2022-11-29T04:02:55.909Z,59.72
2022-11-29T04:05:50.339Z,68.60
2022-11-29T04:09:06.756Z,66.30
2022-11-29T04:12:17.191Z,65.57
2022-11-29T04:15:25.805Z,67.88
2022-11-29T04:18:44.467Z,61.13
2022-11-29T04:21:32.097Z,68.45
2022-11-29T04:24:52.482Z,59.22
2022-11-29T04:27:54.616Z,65.22
2022-11-29T04:30:56.594Z,66.80
2022-11-29T04:33:42.095Z,60.08
2022-11-29T04:36:57.130Z,68.85
2022-11-29T04:39:57.595Z,58.60
2022-11-29T04:43:21.338Z,64.07
2022-11-29T04:46:24.985Z,66.22
2022-11-29T04:49:27.270Z,65.07
2022-11-29T04:52:33.652Z,65.47
2022-11-29T04:55:31.056Z,67.50
2022-11-29T04:58:34.236Z,62.17
2022-11-29T05:01:48.375Z,65.75
2022-11-29T05:04:58.147Z,64.43
2022-11-29T05:07:53.916Z,62.05
2022-11-29T05:10:52.423Z,64.97
2022-11-29T05:13:42.441Z,63.40
2022-11-29T05:16:47.844Z,60.25
2022-11-29T05:20:09.377Z,64.60
2022-11-29T05:23:26.105Z,60.80
2022-11-29T05:26:19.041Z,64.93
2022-11-29T05:29:18.632Z,68.38
2022-11-29T05:32:22.421Z,65.20
2022-11-29T05:35:29.527Z,61.10
2022-11-29T05:38:52.652Z,61.28
2022-11-29T05:41:48.125Z,66.22
2022-11-29T05:44:39.608Z,58.45
2022-11-29T05:47:42.855Z,64.68
2022-11-29T05:50:47.432Z,67.30
2022-11-29T05:53:46.986Z,70.97
2022-11-29T05:59:40.055Z,65.35
2022-11-29T06:02:49.850Z,61.95
2022-11-29T06:05:46.716Z,61.60
2022-11-29T06:09:17.172Z,61.20
2022-11-29T06:12:18.183Z,61.75
2022-11-29T06:15:34.092Z,62.40
2022-11-29T06:18:47.070Z,65.63
2022-11-29T06:21:51.757Z,66.15
2022-11-29T06:25:06.738Z,64.30
2022-11-29T06:27:51.856Z,60.80
2022-11-29T06:31:02.771Z,64.90
2022-11-29T06:33:56.854Z,63.65
2022-11-29T06:36:48.664Z,65.55
2022-11-29T06:39:34.378Z,68.07
2022-11-29T06:42:19.888Z,62.58
2022-11-29T06:45:07.309Z,61.20
2022-11-29T06:48:02.367Z,62.65
2022-11-29T06:51:09.975Z,66.53
2022-11-29T06:54:20.150Z,61.75
2022-11-29T06:57:26.882Z,62.33
2022-11-29T07:00:22.200Z,63.50
2022-11-29T07:03:29.262Z,58.63
2022-11-29T07:06:24.016Z,59.83
2022-11-29T07:09:20.311Z,72.55
2022-11-29T07:12:06.108Z,70.15
2022-11-29T07:14:51.992Z,61.67
2022-11-29T07:18:04.762Z,69.22
2022-11-29T07:21:04.782Z,63.17
2022-11-29T07:24:05.601Z,63.38
2022-11-29T07:27:15.547Z,64.65
2022-11-29T07:30:09.462Z,60.90
2022-11-29T07:33:29.505Z,60.42
2022-11-29T07:36:21.097Z,62.35
2022-11-29T07:39:17.624Z,61.13
2022-11-29T07:42:30.661Z,65.15
2022-11-29T07:45:28.557Z,60.53
2022-11-29T07:48:16.149Z,63.08
2022-11-29T07:51:01.885Z,67.47
2022-11-29T07:53:47.608Z,64.13
2022-11-29T07:56:33.226Z,68.55
2022-11-29T07:59:18.453Z,63.38
2022-11-29T08:02:08.782Z,61.45
2022-11-29T08:04:57.729Z,61.03
2022-11-29T08:07:42.926Z,63.80
2022-11-29T08:10:28.745Z,64.00
2022-11-29T08:13:14.510Z,61.30
2022-11-29T08:15:59.663Z,62.65
2022-11-29T08:18:45.303Z,60.97
2022-11-29T08:21:30.497Z,60.90
2022-11-29T08:24:15.873Z,61.05
2022-11-29T08:27:01.526Z,57.15
2022-11-29T08:29:46.745Z,57.60
2022-11-29T08:32:33.135Z,65.10
2022-11-29T08:35:20.620Z,64.03
2022-11-29T08:38:06.762Z,62.28
2022-11-29T08:40:51.913Z,61.65
2022-11-29T08:43:37.228Z,62.70
2022-11-29T08:46:43.056Z,61.92
2022-11-29T08:49:28.545Z,64.90
2022-11-29T08:52:32.194Z,59.45
2022-11-29T08:55:19.801Z,64.05
2022-11-29T08:58:12.059Z,62.47
2022-11-29T09:00:57.780Z,58.45
2022-11-29T09:03:59.496Z,62.20
2022-11-29T09:06:45.197Z,62.22
2022-11-29T09:09:30.592Z,59.10
2022-11-29T09:12:16.286Z,55.85
2022-11-29T09:15:02.026Z,60.17
2022-11-29T09:17:47.711Z,61.03
2022-11-29T09:20:33.920Z,58.25
2022-11-29T09:23:19.021Z,58.88
2022-11-29T09:26:05.500Z,61.35
2022-11-29T09:28:50.752Z,61.53
2022-11-29T09:31:36.279Z,61.35
2022-11-29T09:34:22.033Z,58.58
2022-11-29T09:37:07.462Z,63.00
2022-11-29T09:39:53.325Z,55.72
2022-11-29T09:43:12.621Z,62.75
2022-11-29T09:46:23.007Z,63.55
2022-11-29T09:49:42.394Z,59.35
2022-11-29T09:53:15.606Z,67.30
2022-11-29T09:56:09.914Z,60.25
2022-11-29T09:59:01.800Z,62.15
2022-11-29T10:01:59.981Z,63.88
2022-11-29T10:04:50.419Z,59.55
2022-11-29T10:08:08.020Z,55.53
2022-11-29T10:11:05.724Z,55.60
2022-11-29T10:13:57.829Z,63.28
2022-11-29T10:16:45.649Z,57.38
2022-11-29T10:19:36.932Z,60.17
2022-11-29T10:22:30.040Z,64.60
2022-11-29T10:25:23.711Z,64.40
2022-11-29T10:28:13.977Z,55.55
2022-11-29T10:31:20.131Z,60.42
2022-11-29T10:34:21.225Z,57.47
2022-11-29T10:37:13.351Z,60.47
2022-11-29T10:40:09.658Z,59.53
2022-11-29T10:42:55.617Z,58.22
2022-11-29T10:45:50.652Z,59.45
2022-11-29T10:48:36.289Z,63.15
2022-11-29T10:51:21.826Z,60.67
2022-11-29T10:54:39.699Z,60.58
2022-11-29T10:57:25.555Z,55.65
2022-11-29T11:00:11.912Z,57.05
2022-11-29T11:03:18.025Z,60.05
2022-11-29T11:06:06.361Z,63.33
2022-11-29T11:08:54.532Z,64.28
2022-11-29T11:11:40.225Z,56.38
2022-11-29T11:14:32.143Z,61.88
2022-11-29T11:17:32.748Z,64.72
2022-11-29T11:20:23.950Z,61.72
2022-11-29T11:23:29.677Z,66.45
2022-11-29T11:26:15.337Z,65.75
2022-11-29T11:29:02.525Z,63.50
2022-11-29T11:31:56.157Z,62.55
2022-11-29T11:34:51.358Z,60.13
2022-11-29T11:37:36.776Z,62.25
2022-11-29T11:40:29.624Z,58.47
2022-11-29T11:43:20.842Z,59.40
2022-11-29T11:46:08.076Z,65.30
2022-11-29T11:48:54.056Z,72.45
2022-11-29T11:51:42.842Z,67.55
2022-11-29T11:54:29.489Z,61.40
2022-11-29T11:57:18.931Z,64.57
2022-11-29T12:02:58.870Z,61.10
2022-11-29T12:05:47.584Z,65.18
2022-11-29T12:08:35.130Z,61.17
2022-11-29T12:11:21.888Z,62.42
2022-11-29T12:14:13.135Z,62.70
2022-11-29T12:17:08.083Z,61.45
2022-11-29T12:20:26.124Z,67.00
2022-11-29T12:23:11.556Z,66.05
2022-11-29T12:26:10.151Z,59.03
2022-11-29T12:28:56.427Z,64.55
2022-11-29T12:32:01.137Z,67.75
2022-11-29T12:34:47.399Z,64.57
2022-11-29T12:37:49.227Z,61.25
2022-11-29T12:40:53.884Z,68.70
2022-11-29T12:43:54.517Z,62.72
2022-11-29T12:46:48.773Z,64.20
2022-11-29T12:50:01.067Z,70.60
2022-11-29T12:53:27.311Z,73.57
2022-11-29T12:56:26.092Z,69.93
2022-11-29T12:59:11.658Z,61.55
2022-11-29T13:02:21.444Z,72.57
2022-11-29T13:05:14.558Z,67.38
2022-11-29T13:08:52.595Z,70.47
2022-11-29T13:11:43.071Z,67.20
2022-11-29T13:14:43.412Z,66.57
2022-11-29T13:17:49.946Z,72.60
2022-11-29T13:21:01.410Z,67.45
2022-11-29T13:24:10.157Z,66.25
2022-11-29T13:26:57.253Z,69.40
2022-11-29T13:29:43.453Z,70.65
2022-11-29T13:32:37.692Z,64.20
2022-11-29T13:35:38.722Z,75.32
2022-11-29T13:38:40.506Z,65.13
2022-11-29T13:41:35.221Z,76.15
2022-11-29T13:44:46.250Z,70.38
2022-11-29T13:47:31.772Z,72.15
2022-11-29T13:50:39.087Z,70.38
2022-11-29T13:53:29.831Z,71.25
2022-11-29T13:56:29.475Z,77.40
2022-11-29T14:02:43.815Z,65.95
2022-11-29T14:05:29.623Z,73.00
2022-11-29T14:08:55.195Z,69.25
2022-11-29T14:11:41.867Z,75.03
2022-11-29T14:14:50.487Z,73.60
2022-11-29T14:17:48.182Z,74.70
2022-11-29T14:20:39.575Z,69.45
2022-11-29T14:23:35.397Z,71.15
2022-11-29T14:26:28.525Z,74.85
2022-11-29T14:29:54.930Z,72.07
2022-11-29T14:32:59.216Z,72.05
2022-11-29T14:35:59.916Z,88.35
2022-11-29T14:39:03.961Z,77.35
2022-11-29T14:42:18.606Z,72.43
2022-11-29T14:45:22.602Z,73.88
2022-11-29T14:48:26.732Z,65.18
2022-11-29T14:51:18.662Z,83.10
2022-11-29T14:54:19.796Z,77.55
2022-11-29T14:57:52.273Z,64.05
2022-11-29T15:00:40.860Z,71.35
2022-11-29T15:03:32.856Z,80.70
2022-11-29T15:06:25.572Z,68.68
2022-11-29T15:09:20.530Z,73.90
2022-11-29T15:12:31.254Z,69.60
2022-11-29T15:15:28.670Z,77.63
2022-11-29T15:18:35.257Z,76.97
2022-11-29T15:21:33.677Z,74.50
2022-11-29T15:24:20.576Z,76.53
2022-11-29T15:29:59.838Z,73.78
2022-11-29T15:32:45.221Z,70.85
2022-11-29T15:35:32.342Z,69.38
2022-11-29T15:38:21.737Z,72.03
2022-11-29T15:44:06.055Z,66.85
2022-11-29T15:46:51.338Z,70.20
2022-11-29T15:49:36.457Z,69.65
2022-11-29T15:52:31.951Z,77.63
2022-11-29T15:55:17.575Z,67.72
2022-11-29T15:58:08.787Z,71.68
2022-11-29T16:00:55.135Z,68.68
2022-11-29T16:03:43.445Z,80.18
2022-11-29T16:06:39.218Z,72.40
2022-11-29T16:09:38.350Z,73.90
2022-11-29T16:12:24.844Z,76.72
2022-11-29T16:15:31.574Z,81.07
2022-11-29T16:18:23.382Z,80.57
2022-11-29T16:21:31.780Z,86.90
2022-11-29T16:24:21.685Z,75.50
2022-11-29T16:27:08.130Z,78.78
2022-11-29T16:29:55.487Z,80.13
2022-11-29T16:32:47.148Z,83.50
2022-11-29T16:35:36.437Z,76.70
2022-11-29T16:38:23.215Z,77.05
2022-11-29T16:41:23.476Z,82.13
2022-11-29T16:44:50.021Z,81.22
2022-11-29T16:47:57.863Z,82.90
2022-11-29T16:50:43.321Z,87.40
2022-11-29T16:53:37.474Z,77.68
2022-11-29T16:56:25.785Z,78.72
2022-11-29T16:59:26.331Z,74.88
2022-11-29T17:02:14.570Z,77.70
2022-11-29T17:04:59.914Z,70.22
2022-11-29T17:07:45.644Z,80.13
2022-11-29T17:10:32.189Z,83.15
2022-11-29T17:13:17.690Z,77.00
2022-11-29T17:16:02.925Z,81.55
2022-11-29T17:18:48.803Z,78.78
2022-11-29T17:21:34.076Z,80.45
2022-11-29T17:24:21.621Z,82.60
2022-11-29T17:27:07.483Z,76.07
2022-11-29T17:29:52.752Z,87.88
2022-11-29T17:32:38.376Z,77.20
2022-11-29T17:35:23.817Z,80.75
2022-11-29T17:38:09.331Z,82.35
2022-11-29T17:40:54.761Z,82.78
2022-11-29T17:43:40.545Z,77.00
2022-11-29T17:46:31.765Z,77.18
2022-11-29T17:49:18.601Z,75.68
2022-11-29T17:52:03.953Z,83.53
2022-11-29T17:54:49.390Z,77.15
2022-11-29T17:57:34.449Z,84.30
2022-11-29T18:00:20.345Z,77.82
2022-11-29T18:03:05.654Z,83.65
2022-11-29T18:05:51.358Z,83.13
2022-11-29T18:08:42.462Z,73.82
2022-11-29T18:11:46.988Z,80.50
2022-11-29T18:14:34.094Z,71.15
2022-11-29T18:17:19.513Z,81.22
